sensor_id;sensor_type;location;lat;lon;timestamp;P1;durP1;ratioP1;P2;durP2;ratioP2
40373;SDS011;26079;45.958;12.492;2023-05-27T00:02:16;1999.90;;;999.90;;
40373;SDS011;26079;45.958;12.492;2023-05-27T00:04:41;1999.90;;;999.90;;
40373;SDS011;26079;45.958;12.492;2023-05-27T00:07:07;1999.90;;;999.90;;
40373;SDS011;26079;45.958;12.492;2023-05-27T00:09:33;1999.90;;;999.90;;
40373;SDS011;26079;45.958;12.492;2023-05-27T00:11:58;1999.90;;;999.90;;
40373;SDS011;26079;45.958;12.492;2023-05-27T00:14:25;1999.90;;;999.90;;
40373;SDS011;26079;45.958;12.492;2023-05-27T00:16:51;1999.90;;;999.90;;
40373;SDS011;26079;45.958;12.492;2023-05-27T00:19:16;1999.90;;;999.90;;
40373;SDS011;26079;45.958;12.492;2023-05-27T00:21:43;1999.90;;;999.90;;
40373;SDS011;26079;45.958;12.492;2023-05-27T00:24:08;1999.90;;;999.90;;
40373;SDS011;26079;45.958;12.492;2023-05-27T00:26:35;1999.90;;;999.90;;
40373;SDS011;26079;45.958;12.492;2023-05-27T00:29:00;1999.90;;;999.90;;
40373;SDS011;26079;45.958;12.492;2023-05-27T00:31:26;1999.90;;;999.90;;
40373;SDS011;26079;45.958;12.492;2023-05-27T00:33:52;1999.90;;;999.90;;
40373;SDS011;26079;45.958;12.492;2023-05-27T00:36:18;1999.90;;;999.90;;
40373;SDS011;26079;45.958;12.492;2023-05-27T00:38:43;1999.90;;;999.90;;
40373;SDS011;26079;45.958;12.492;2023-05-27T00:41:10;1999.90;;;999.90;;
40373;SDS011;26079;45.958;12.492;2023-05-27T00:43:37;1999.90;;;999.90;;
40373;SDS011;26079;45.958;12.492;2023-05-27T00:46:03;1999.90;;;999.90;;
40373;SDS011;26079;45.958;12.492;2023-05-27T00:48:31;1999.90;;;999.90;;
40373;SDS011;26079;45.958;12.492;2023-05-27T00:50:57;1999.90;;;999.90;;
40373;SDS011;26079;45.958;12.492;2023-05-27T00:53:23;1999.90;;;999.90;;
40373;SDS011;26079;45.958;12.492;2023-05-27T00:55:50;1999.90;;;999.90;;
40373;SDS011;26079;45.958;12.492;2023-05-27T00:58:19;1999.90;;;999.90;;
40373;SDS011;26079;45.958;12.492;2023-05-27T01:00:46;1999.90;;;999.90;;
40373;SDS011;26079;45.958;12.492;2023-05-27T01:03:15;1999.90;;;999.90;;
40373;SDS011;26079;45.958;12.492;2023-05-27T01:05:41;1999.90;;;999.90;;
40373;SDS011;26079;45.958;12.492;2023-05-27T01:10:46;1999.90;;;999.90;;
40373;SDS011;26079;45.958;12.492;2023-05-27T01:16:12;1999.90;;;999.90;;
40373;SDS011;26079;45.958;12.492;2023-05-27T01:18:42;1999.90;;;999.90;;
40373;SDS011;26079;45.958;12.492;2023-05-27T01:21:10;1999.90;;;999.90;;
40373;SDS011;26079;45.958;12.492;2023-05-27T01:23:40;1999.90;;;999.90;;
40373;SDS011;26079;45.958;12.492;2023-05-27T01:26:06;1999.90;;;999.90;;
40373;SDS011;26079;45.958;12.492;2023-05-27T01:28:32;1999.90;;;999.90;;
40373;SDS011;26079;45.958;12.492;2023-05-27T01:31:02;1999.90;;;991.42;;
40373;SDS011;26079;45.958;12.492;2023-05-27T01:33:44;1999.90;;;996.47;;
40373;SDS011;26079;45.958;12.492;2023-05-27T01:36:19;1999.90;;;999.90;;
40373;SDS011;26079;45.958;12.492;2023-05-27T01:38:47;1999.90;;;999.90;;
40373;SDS011;26079;45.958;12.492;2023-05-27T01:41:15;1999.90;;;999.90;;
40373;SDS011;26079;45.958;12.492;2023-05-27T01:43:41;1999.90;;;999.90;;
40373;SDS011;26079;45.958;12.492;2023-05-27T01:46:08;1999.90;;;999.90;;
40373;SDS011;26079;45.958;12.492;2023-05-27T01:48:33;1999.90;;;999.90;;
40373;SDS011;26079;45.958;12.492;2023-05-27T01:50:59;1999.90;;;999.90;;
40373;SDS011;26079;45.958;12.492;2023-05-27T01:53:25;1999.90;;;999.90;;
40373;SDS011;26079;45.958;12.492;2023-05-27T01:55:50;1999.90;;;999.90;;
40373;SDS011;26079;45.958;12.492;2023-05-27T01:58:16;1999.90;;;999.90;;
40373;SDS011;26079;45.958;12.492;2023-05-27T02:00:42;1999.90;;;999.90;;
40373;SDS011;26079;45.958;12.492;2023-05-27T02:03:07;1999.90;;;999.90;;
40373;SDS011;26079;45.958;12.492;2023-05-27T02:05:33;1999.90;;;999.90;;
40373;SDS011;26079;45.958;12.492;2023-05-27T02:08:00;1999.90;;;999.90;;
40373;SDS011;26079;45.958;12.492;2023-05-27T02:10:26;1999.90;;;999.90;;
40373;SDS011;26079;45.958;12.492;2023-05-27T02:12:53;1999.90;;;999.90;;
40373;SDS011;26079;45.958;12.492;2023-05-27T02:15:18;1999.90;;;999.90;;
40373;SDS011;26079;45.958;12.492;2023-05-27T02:17:44;1999.90;;;999.90;;
40373;SDS011;26079;45.958;12.492;2023-05-27T02:20:11;1999.90;;;999.90;;
40373;SDS011;26079;45.958;12.492;2023-05-27T02:22:37;1999.90;;;999.90;;
40373;SDS011;26079;45.958;12.492;2023-05-27T02:25:02;1999.90;;;999.90;;
40373;SDS011;26079;45.958;12.492;2023-05-27T02:27:28;1999.90;;;999.90;;
40373;SDS011;26079;45.958;12.492;2023-05-27T02:29:54;1999.90;;;999.90;;
40373;SDS011;26079;45.958;12.492;2023-05-27T02:32:20;1999.90;;;999.90;;
40373;SDS011;26079;45.958;12.492;2023-05-27T02:34:45;1999.90;;;999.90;;
40373;SDS011;26079;45.958;12.492;2023-05-27T02:37:11;1999.90;;;999.90;;
40373;SDS011;26079;45.958;12.492;2023-05-27T02:39:37;1999.90;;;999.90;;
40373;SDS011;26079;45.958;12.492;2023-05-27T02:42:03;1999.90;;;999.90;;
40373;SDS011;26079;45.958;12.492;2023-05-27T02:44:29;1999.90;;;999.90;;
40373;SDS011;26079;45.958;12.492;2023-05-27T02:46:55;1999.90;;;999.90;;
40373;SDS011;26079;45.958;12.492;2023-05-27T02:49:21;1999.90;;;999.90;;
40373;SDS011;26079;45.958;12.492;2023-05-27T02:51:46;1999.90;;;999.90;;
40373;SDS011;26079;45.958;12.492;2023-05-27T02:54:12;1999.90;;;999.90;;
40373;SDS011;26079;45.958;12.492;2023-05-27T02:56:37;1999.90;;;999.90;;
40373;SDS011;26079;45.958;12.492;2023-05-27T02:59:03;1999.90;;;999.90;;
40373;SDS011;26079;45.958;12.492;2023-05-27T03:01:29;1999.90;;;999.90;;
40373;SDS011;26079;45.958;12.492;2023-05-27T03:03:54;1999.90;;;999.90;;
40373;SDS011;26079;45.958;12.492;2023-05-27T03:06:20;1999.90;;;999.90;;
40373;SDS011;26079;45.958;12.492;2023-05-27T03:08:47;1999.90;;;999.90;;
40373;SDS011;26079;45.958;12.492;2023-05-27T03:11:12;1999.90;;;999.90;;
40373;SDS011;26079;45.958;12.492;2023-05-27T03:13:38;1999.90;;;999.90;;
40373;SDS011;26079;45.958;12.492;2023-05-27T03:16:03;1999.90;;;999.90;;
40373;SDS011;26079;45.958;12.492;2023-05-27T03:18:30;1999.90;;;999.90;;
40373;SDS011;26079;45.958;12.492;2023-05-27T03:20:56;1999.90;;;999.90;;
40373;SDS011;26079;45.958;12.492;2023-05-27T03:23:21;1999.90;;;999.90;;
40373;SDS011;26079;45.958;12.492;2023-05-27T03:25:47;1999.90;;;999.90;;
40373;SDS011;26079;45.958;12.492;2023-05-27T03:28:13;1999.90;;;999.90;;
40373;SDS011;26079;45.958;12.492;2023-05-27T03:30:39;1999.90;;;999.90;;
40373;SDS011;26079;45.958;12.492;2023-05-27T03:33:08;1999.90;;;999.90;;
40373;SDS011;26079;45.958;12.492;2023-05-27T03:35:33;1999.90;;;999.90;;
40373;SDS011;26079;45.958;12.492;2023-05-27T03:37:59;1999.90;;;999.90;;
40373;SDS011;26079;45.958;12.492;2023-05-27T03:40:25;1999.90;;;999.90;;
40373;SDS011;26079;45.958;12.492;2023-05-27T03:42:50;1999.90;;;999.90;;
40373;SDS011;26079;45.958;12.492;2023-05-27T03:45:18;1999.90;;;999.90;;
40373;SDS011;26079;45.958;12.492;2023-05-27T03:47:43;1999.90;;;999.90;;
40373;SDS011;26079;45.958;12.492;2023-05-27T03:50:09;1999.90;;;999.90;;
40373;SDS011;26079;45.958;12.492;2023-05-27T03:52:35;1999.90;;;999.90;;
40373;SDS011;26079;45.958;12.492;2023-05-27T03:55:01;1999.90;;;999.90;;
40373;SDS011;26079;45.958;12.492;2023-05-27T03:57:26;1999.90;;;999.90;;
40373;SDS011;26079;45.958;12.492;2023-05-27T03:59:52;1999.90;;;999.90;;
40373;SDS011;26079;45.958;12.492;2023-05-27T04:02:18;1999.90;;;999.90;;
40373;SDS011;26079;45.958;12.492;2023-05-27T04:04:43;1999.90;;;999.90;;
40373;SDS011;26079;45.958;12.492;2023-05-27T04:07:09;1999.90;;;999.90;;
40373;SDS011;26079;45.958;12.492;2023-05-27T04:09:35;1999.90;;;999.90;;
40373;SDS011;26079;45.958;12.492;2023-05-27T04:12:00;1999.90;;;999.90;;
40373;SDS011;26079;45.958;12.492;2023-05-27T04:14:26;1999.90;;;999.90;;
40373;SDS011;26079;45.958;12.492;2023-05-27T04:16:52;1999.90;;;999.90;;
40373;SDS011;26079;45.958;12.492;2023-05-27T04:19:18;1999.90;;;999.90;;
40373;SDS011;26079;45.958;12.492;2023-05-27T04:21:43;1999.90;;;999.90;;
40373;SDS011;26079;45.958;12.492;2023-05-27T04:24:09;1999.90;;;999.90;;
40373;SDS011;26079;45.958;12.492;2023-05-27T04:26:34;1999.90;;;999.90;;
40373;SDS011;26079;45.958;12.492;2023-05-27T04:29:00;1999.90;;;999.90;;
40373;SDS011;26079;45.958;12.492;2023-05-27T04:31:26;1999.90;;;999.90;;
40373;SDS011;26079;45.958;12.492;2023-05-27T04:33:53;1999.90;;;999.90;;
40373;SDS011;26079;45.958;12.492;2023-05-27T04:36:19;1999.90;;;999.90;;
40373;SDS011;26079;45.958;12.492;2023-05-27T04:38:50;1999.90;;;999.90;;
40373;SDS011;26079;45.958;12.492;2023-05-27T04:41:16;1999.90;;;999.90;;
40373;SDS011;26079;45.958;12.492;2023-05-27T04:43:41;1999.90;;;999.90;;
40373;SDS011;26079;45.958;12.492;2023-05-27T04:46:07;1999.90;;;999.90;;
40373;SDS011;26079;45.958;12.492;2023-05-27T04:48:33;1999.90;;;999.90;;
40373;SDS011;26079;45.958;12.492;2023-05-27T04:51:00;1999.90;;;999.90;;
40373;SDS011;26079;45.958;12.492;2023-05-27T04:53:26;1999.90;;;999.90;;
40373;SDS011;26079;45.958;12.492;2023-05-27T04:55:51;1999.90;;;999.90;;
40373;SDS011;26079;45.958;12.492;2023-05-27T04:58:17;1999.90;;;999.90;;
40373;SDS011;26079;45.958;12.492;2023-05-27T05:00:43;1999.90;;;999.90;;
40373;SDS011;26079;45.958;12.492;2023-05-27T05:03:15;1999.90;;;999.90;;
40373;SDS011;26079;45.958;12.492;2023-05-27T05:05:52;1999.90;;;999.90;;
40373;SDS011;26079;45.958;12.492;2023-05-27T05:08:18;1999.90;;;999.90;;
40373;SDS011;26079;45.958;12.492;2023-05-27T05:10:48;1999.90;;;959.95;;
40373;SDS011;26079;45.958;12.492;2023-05-27T05:13:14;1999.90;;;995.08;;
40373;SDS011;26079;45.958;12.492;2023-05-27T05:15:41;1999.90;;;991.80;;
40373;SDS011;26079;45.958;12.492;2023-05-27T05:18:08;1999.90;;;999.90;;
40373;SDS011;26079;45.958;12.492;2023-05-27T05:20:37;1999.90;;;999.90;;
40373;SDS011;26079;45.958;12.492;2023-05-27T05:23:03;1999.90;;;999.90;;
40373;SDS011;26079;45.958;12.492;2023-05-27T05:25:29;1999.90;;;999.90;;
40373;SDS011;26079;45.958;12.492;2023-05-27T05:27:55;1999.90;;;999.90;;
40373;SDS011;26079;45.958;12.492;2023-05-27T05:30:21;1999.90;;;999.90;;
40373;SDS011;26079;45.958;12.492;2023-05-27T05:32:47;1999.90;;;999.90;;
40373;SDS011;26079;45.958;12.492;2023-05-27T05:35:13;1999.90;;;999.90;;
40373;SDS011;26079;45.958;12.492;2023-05-27T05:37:39;1999.90;;;999.90;;
40373;SDS011;26079;45.958;12.492;2023-05-27T05:40:05;1999.90;;;999.90;;
40373;SDS011;26079;45.958;12.492;2023-05-27T05:42:31;1999.90;;;999.90;;
40373;SDS011;26079;45.958;12.492;2023-05-27T05:44:57;1999.90;;;999.90;;
40373;SDS011;26079;45.958;12.492;2023-05-27T05:47:22;1999.90;;;999.90;;
40373;SDS011;26079;45.958;12.492;2023-05-27T05:49:48;1999.90;;;999.90;;
40373;SDS011;26079;45.958;12.492;2023-05-27T05:52:14;1999.90;;;999.90;;
40373;SDS011;26079;45.958;12.492;2023-05-27T05:54:39;1999.90;;;922.45;;
40373;SDS011;26079;45.958;12.492;2023-05-27T05:57:05;1999.90;;;999.90;;
40373;SDS011;26079;45.958;12.492;2023-05-27T05:59:31;1999.90;;;999.90;;
40373;SDS011;26079;45.958;12.492;2023-05-27T06:01:56;1999.90;;;999.90;;
40373;SDS011;26079;45.958;12.492;2023-05-27T06:04:22;1999.90;;;999.90;;
40373;SDS011;26079;45.958;12.492;2023-05-27T06:06:48;1999.90;;;999.90;;
40373;SDS011;26079;45.958;12.492;2023-05-27T06:09:14;1999.90;;;999.90;;
40373;SDS011;26079;45.958;12.492;2023-05-27T06:11:39;1999.90;;;914.45;;
40373;SDS011;26079;45.958;12.492;2023-05-27T06:14:06;668.30;;;611.55;;
40373;SDS011;26079;45.958;12.492;2023-05-27T06:16:32;495.67;;;458.42;;
40373;SDS011;26079;45.958;12.492;2023-05-27T06:19:00;566.88;;;519.45;;
40373;SDS011;26079;45.958;12.492;2023-05-27T06:21:28;426.77;;;395.17;;
40373;SDS011;26079;45.958;12.492;2023-05-27T06:23:55;407.55;;;379.98;;
40373;SDS011;26079;45.958;12.492;2023-05-27T06:26:20;515.45;;;478.08;;
40373;SDS011;26079;45.958;12.492;2023-05-27T06:28:47;432.08;;;401.17;;
40373;SDS011;26079;45.958;12.492;2023-05-27T06:31:12;541.17;;;496.73;;
40373;SDS011;26079;45.958;12.492;2023-05-27T06:33:38;153.13;;;142.90;;
40373;SDS011;26079;45.958;12.492;2023-05-27T06:36:06;540.33;;;500.33;;
40373;SDS011;26079;45.958;12.492;2023-05-27T06:38:32;130.82;;;123.22;;
40373;SDS011;26079;45.958;12.492;2023-05-27T06:40:57;93.72;;;88.65;;
40373;SDS011;26079;45.958;12.492;2023-05-27T06:43:23;78.38;;;73.78;;
40373;SDS011;26079;45.958;12.492;2023-05-27T06:45:49;66.88;;;63.13;;
40373;SDS011;26079;45.958;12.492;2023-05-27T06:48:14;34.65;;;32.30;;
40373;SDS011;26079;45.958;12.492;2023-05-27T06:50:40;191.52;;;179.10;;
40373;SDS011;26079;45.958;12.492;2023-05-27T06:53:06;331.60;;;309.73;;
40373;SDS011;26079;45.958;12.492;2023-05-27T06:55:31;296.63;;;275.75;;
40373;SDS011;26079;45.958;12.492;2023-05-27T06:57:57;257.80;;;241.27;;
40373;SDS011;26079;45.958;12.492;2023-05-27T07:00:23;468.00;;;436.55;;
40373;SDS011;26079;45.958;12.492;2023-05-27T07:02:48;1999.90;;;999.90;;
40373;SDS011;26079;45.958;12.492;2023-05-27T07:05:14;144.85;;;136.73;;
40373;SDS011;26079;45.958;12.492;2023-05-27T07:07:39;124.63;;;117.05;;
40373;SDS011;26079;45.958;12.492;2023-05-27T07:10:05;147.10;;;137.52;;
40373;SDS011;26079;45.958;12.492;2023-05-27T07:12:31;361.25;;;335.80;;
40373;SDS011;26079;45.958;12.492;2023-05-27T07:14:57;469.80;;;438.20;;
40373;SDS011;26079;45.958;12.492;2023-05-27T07:17:23;463.90;;;429.27;;
40373;SDS011;26079;45.958;12.492;2023-05-27T07:19:48;367.73;;;345.45;;
40373;SDS011;26079;45.958;12.492;2023-05-27T07:22:14;390.92;;;367.05;;
40373;SDS011;26079;45.958;12.492;2023-05-27T07:24:39;400.75;;;370.23;;
40373;SDS011;26079;45.958;12.492;2023-05-27T07:27:05;507.20;;;455.15;;
40373;SDS011;26079;45.958;12.492;2023-05-27T07:29:32;292.90;;;274.70;;
40373;SDS011;26079;45.958;12.492;2023-05-27T07:31:57;414.60;;;389.27;;
40373;SDS011;26079;45.958;12.492;2023-05-27T07:34:23;214.60;;;201.48;;
40373;SDS011;26079;45.958;12.492;2023-05-27T07:36:49;440.00;;;408.25;;
40373;SDS011;26079;45.958;12.492;2023-05-27T07:39:14;379.40;;;356.42;;
40373;SDS011;26079;45.958;12.492;2023-05-27T07:41:40;203.43;;;191.18;;
40373;SDS011;26079;45.958;12.492;2023-05-27T07:44:06;344.33;;;323.95;;
40373;SDS011;26079;45.958;12.492;2023-05-27T07:46:31;329.50;;;308.05;;
40373;SDS011;26079;45.958;12.492;2023-05-27T07:48:58;361.13;;;335.90;;
40373;SDS011;26079;45.958;12.492;2023-05-27T07:51:25;293.10;;;274.00;;
40373;SDS011;26079;45.958;12.492;2023-05-27T07:53:50;339.20;;;315.35;;
40373;SDS011;26079;45.958;12.492;2023-05-27T07:56:16;345.25;;;321.38;;
40373;SDS011;26079;45.958;12.492;2023-05-27T07:58:42;530.60;;;490.42;;
40373;SDS011;26079;45.958;12.492;2023-05-27T08:01:07;287.92;;;269.25;;
40373;SDS011;26079;45.958;12.492;2023-05-27T08:03:33;1999.90;;;999.90;;
40373;SDS011;26079;45.958;12.492;2023-05-27T08:05:59;211.98;;;199.02;;
40373;SDS011;26079;45.958;12.492;2023-05-27T08:08:24;1984.20;;;648.75;;
40373;SDS011;26079;45.958;12.492;2023-05-27T08:10:50;1999.90;;;784.33;;
40373;SDS011;26079;45.958;12.492;2023-05-27T08:13:16;249.07;;;234.23;;
40373;SDS011;26079;45.958;12.492;2023-05-27T08:15:42;245.52;;;230.55;;
40373;SDS011;26079;45.958;12.492;2023-05-27T08:18:08;474.55;;;440.05;;
40373;SDS011;26079;45.958;12.492;2023-05-27T08:20:33;238.82;;;224.13;;
40373;SDS011;26079;45.958;12.492;2023-05-27T08:22:59;357.13;;;331.58;;
40373;SDS011;26079;45.958;12.492;2023-05-27T08:25:25;328.42;;;308.77;;
40373;SDS011;26079;45.958;12.492;2023-05-27T08:27:51;358.75;;;337.23;;
40373;SDS011;26079;45.958;12.492;2023-05-27T08:30:26;384.98;;;347.70;;
40373;SDS011;26079;45.958;12.492;2023-05-27T08:32:52;488.55;;;440.45;;
40373;SDS011;26079;45.958;12.492;2023-05-27T08:35:18;329.42;;;306.92;;
40373;SDS011;26079;45.958;12.492;2023-05-27T08:37:45;338.05;;;318.55;;
40373;SDS011;26079;45.958;12.492;2023-05-27T08:40:12;265.08;;;248.10;;
40373;SDS011;26079;45.958;12.492;2023-05-27T08:42:39;681.80;;;451.60;;
40373;SDS011;26079;45.958;12.492;2023-05-27T08:45:06;462.67;;;424.60;;
40373;SDS011;26079;45.958;12.492;2023-05-27T08:47:33;508.50;;;470.52;;
40373;SDS011;26079;45.958;12.492;2023-05-27T08:49:58;546.55;;;506.13;;
40373;SDS011;26079;45.958;12.492;2023-05-27T08:52:26;376.70;;;350.45;;
40373;SDS011;26079;45.958;12.492;2023-05-27T08:54:53;396.73;;;368.73;;
40373;SDS011;26079;45.958;12.492;2023-05-27T08:57:21;522.10;;;437.00;;
40373;SDS011;26079;45.958;12.492;2023-05-27T08:59:50;593.28;;;549.53;;
40373;SDS011;26079;45.958;12.492;2023-05-27T09:02:16;1999.90;;;925.28;;
40373;SDS011;26079;45.958;12.492;2023-05-27T09:04:45;1999.90;;;999.90;;
40373;SDS011;26079;45.958;12.492;2023-05-27T09:07:11;1999.90;;;814.28;;
40373;SDS011;26079;45.958;12.492;2023-05-27T09:09:40;1939.55;;;675.20;;
40373;SDS011;26079;45.958;12.492;2023-05-27T09:12:07;1999.90;;;999.90;;
40373;SDS011;26079;45.958;12.492;2023-05-27T09:14:35;550.03;;;502.70;;
40373;SDS011;26079;45.958;12.492;2023-05-27T09:17:05;1899.25;;;662.03;;
40373;SDS011;26079;45.958;12.492;2023-05-27T09:19:31;627.22;;;487.13;;
40373;SDS011;26079;45.958;12.492;2023-05-27T09:21:57;388.15;;;360.45;;
40373;SDS011;26079;45.958;12.492;2023-05-27T09:24:23;386.35;;;358.58;;
40373;SDS011;26079;45.958;12.492;2023-05-27T09:26:52;557.55;;;511.60;;
40373;SDS011;26079;45.958;12.492;2023-05-27T09:29:19;544.50;;;504.23;;
40373;SDS011;26079;45.958;12.492;2023-05-27T09:31:47;435.60;;;401.88;;
40373;SDS011;26079;45.958;12.492;2023-05-27T09:34:13;544.63;;;504.20;;
40373;SDS011;26079;45.958;12.492;2023-05-27T09:36:47;247.35;;;231.93;;
40373;SDS011;26079;45.958;12.492;2023-05-27T09:39:15;484.02;;;448.40;;
40373;SDS011;26079;45.958;12.492;2023-05-27T09:41:42;526.97;;;481.98;;
40373;SDS011;26079;45.958;12.492;2023-05-27T09:44:08;369.67;;;346.00;;
40373;SDS011;26079;45.958;12.492;2023-05-27T09:46:35;386.42;;;362.00;;
40373;SDS011;26079;45.958;12.492;2023-05-27T09:49:01;298.05;;;279.42;;
40373;SDS011;26079;45.958;12.492;2023-05-27T09:51:28;425.88;;;398.02;;
40373;SDS011;26079;45.958;12.492;2023-05-27T09:53:55;462.70;;;429.83;;
40373;SDS011;26079;45.958;12.492;2023-05-27T09:56:24;467.60;;;436.50;;
40373;SDS011;26079;45.958;12.492;2023-05-27T09:58:54;641.47;;;591.97;;
40373;SDS011;26079;45.958;12.492;2023-05-27T10:01:21;609.28;;;560.97;;
40373;SDS011;26079;45.958;12.492;2023-05-27T10:03:51;505.40;;;422.45;;
40373;SDS011;26079;45.958;12.492;2023-05-27T10:06:18;350.25;;;327.55;;
40373;SDS011;26079;45.958;12.492;2023-05-27T10:08:45;462.77;;;427.95;;
40373;SDS011;26079;45.958;12.492;2023-05-27T10:11:11;674.75;;;621.33;;
40373;SDS011;26079;45.958;12.492;2023-05-27T10:13:37;436.80;;;404.58;;
40373;SDS011;26079;45.958;12.492;2023-05-27T10:16:03;365.98;;;343.05;;
40373;SDS011;26079;45.958;12.492;2023-05-27T10:18:29;334.05;;;310.67;;
40373;SDS011;26079;45.958;12.492;2023-05-27T10:20:59;474.58;;;442.90;;
40373;SDS011;26079;45.958;12.492;2023-05-27T10:23:28;403.65;;;377.15;;
40373;SDS011;26079;45.958;12.492;2023-05-27T10:28:35;1999.90;;;829.17;;
40373;SDS011;26079;45.958;12.492;2023-05-27T10:33:43;368.73;;;341.85;;
40373;SDS011;26079;45.958;12.492;2023-05-27T10:36:16;609.50;;;563.08;;
40373;SDS011;26079;45.958;12.492;2023-05-27T10:38:56;593.85;;;493.13;;
40373;SDS011;26079;45.958;12.492;2023-05-27T10:41:40;703.17;;;551.65;;
40373;SDS011;26079;45.958;12.492;2023-05-27T10:47:04;551.85;;;510.75;;
40373;SDS011;26079;45.958;12.492;2023-05-27T10:49:38;465.70;;;421.67;;
40373;SDS011;26079;45.958;12.492;2023-05-27T10:52:09;554.20;;;511.73;;
40373;SDS011;26079;45.958;12.492;2023-05-27T10:54:38;356.95;;;329.90;;
40373;SDS011;26079;45.958;12.492;2023-05-27T10:57:05;414.25;;;383.05;;
40373;SDS011;26079;45.958;12.492;2023-05-27T11:02:04;578.50;;;482.73;;
40373;SDS011;26079;45.958;12.492;2023-05-27T11:04:34;380.17;;;356.38;;
40373;SDS011;26079;45.958;12.492;2023-05-27T11:07:01;254.18;;;238.85;;
40373;SDS011;26079;45.958;12.492;2023-05-27T11:09:28;631.38;;;496.20;;
40373;SDS011;26079;45.958;12.492;2023-05-27T11:12:00;580.97;;;453.23;;
40373;SDS011;26079;45.958;12.492;2023-05-27T11:14:30;552.97;;;512.05;;
40373;SDS011;26079;45.958;12.492;2023-05-27T11:16:55;1170.55;;;653.92;;
40373;SDS011;26079;45.958;12.492;2023-05-27T11:19:21;535.33;;;458.15;;
40373;SDS011;26079;45.958;12.492;2023-05-27T11:21:47;916.97;;;537.85;;
40373;SDS011;26079;45.958;12.492;2023-05-27T11:24:14;293.52;;;273.63;;
40373;SDS011;26079;45.958;12.492;2023-05-27T11:26:42;271.35;;;252.60;;
40373;SDS011;26079;45.958;12.492;2023-05-27T11:29:12;358.15;;;334.67;;
40373;SDS011;26079;45.958;12.492;2023-05-27T11:31:38;113.97;;;107.43;;
40373;SDS011;26079;45.958;12.492;2023-05-27T11:34:11;148.55;;;138.85;;
40373;SDS011;26079;45.958;12.492;2023-05-27T11:36:40;256.88;;;238.98;;
40373;SDS011;26079;45.958;12.492;2023-05-27T11:39:12;199.38;;;185.93;;
40373;SDS011;26079;45.958;12.492;2023-05-27T11:41:48;297.33;;;277.90;;
40373;SDS011;26079;45.958;12.492;2023-05-27T11:44:15;76.95;;;72.53;;
40373;SDS011;26079;45.958;12.492;2023-05-27T11:46:43;164.80;;;154.13;;
40373;SDS011;26079;45.958;12.492;2023-05-27T11:49:10;305.67;;;285.67;;
40373;SDS011;26079;45.958;12.492;2023-05-27T11:51:38;476.40;;;443.88;;
40373;SDS011;26079;45.958;12.492;2023-05-27T11:54:26;406.40;;;380.50;;
40373;SDS011;26079;45.958;12.492;2023-05-27T11:56:54;304.98;;;284.70;;
40373;SDS011;26079;45.958;12.492;2023-05-27T11:59:21;371.35;;;347.33;;
40373;SDS011;26079;45.958;12.492;2023-05-27T12:01:47;299.83;;;281.77;;
40373;SDS011;26079;45.958;12.492;2023-05-27T12:04:14;286.00;;;268.05;;
40373;SDS011;26079;45.958;12.492;2023-05-27T12:06:44;361.05;;;337.30;;
40373;SDS011;26079;45.958;12.492;2023-05-27T12:09:10;378.15;;;354.42;;
40373;SDS011;26079;45.958;12.492;2023-05-27T12:11:36;52.60;;;49.42;;
40373;SDS011;26079;45.958;12.492;2023-05-27T12:14:03;238.60;;;222.77;;
40373;SDS011;26079;45.958;12.492;2023-05-27T12:16:29;221.50;;;207.00;;
40373;SDS011;26079;45.958;12.492;2023-05-27T12:18:55;83.47;;;77.40;;
40373;SDS011;26079;45.958;12.492;2023-05-27T12:21:20;98.18;;;91.80;;
40373;SDS011;26079;45.958;12.492;2023-05-27T12:23:46;341.17;;;318.77;;
40373;SDS011;26079;45.958;12.492;2023-05-27T12:26:13;372.92;;;348.95;;
40373;SDS011;26079;45.958;12.492;2023-05-27T12:28:39;388.60;;;360.70;;
40373;SDS011;26079;45.958;12.492;2023-05-27T12:31:06;444.77;;;415.02;;
40373;SDS011;26079;45.958;12.492;2023-05-27T12:33:32;304.77;;;284.15;;
40373;SDS011;26079;45.958;12.492;2023-05-27T12:35:58;265.08;;;248.68;;
40373;SDS011;26079;45.958;12.492;2023-05-27T12:38:24;391.90;;;365.17;;
40373;SDS011;26079;45.958;12.492;2023-05-27T12:40:50;381.58;;;355.20;;
40373;SDS011;26079;45.958;12.492;2023-05-27T12:43:17;317.23;;;297.42;;
40373;SDS011;26079;45.958;12.492;2023-05-27T12:45:43;339.60;;;318.30;;
40373;SDS011;26079;45.958;12.492;2023-05-27T12:48:10;387.58;;;362.73;;
40373;SDS011;26079;45.958;12.492;2023-05-27T12:50:36;286.33;;;267.92;;
40373;SDS011;26079;45.958;12.492;2023-05-27T12:53:02;495.25;;;462.20;;
40373;SDS011;26079;45.958;12.492;2023-05-27T12:55:28;150.68;;;140.38;;
40373;SDS011;26079;45.958;12.492;2023-05-27T12:57:53;363.17;;;339.38;;
40373;SDS011;26079;45.958;12.492;2023-05-27T13:00:19;398.95;;;372.05;;
40373;SDS011;26079;45.958;12.492;2023-05-27T13:02:47;279.13;;;260.23;;
40373;SDS011;26079;45.958;12.492;2023-05-27T13:05:13;525.17;;;485.17;;
40373;SDS011;26079;45.958;12.492;2023-05-27T13:07:39;471.23;;;439.60;;
40373;SDS011;26079;45.958;12.492;2023-05-27T13:10:06;383.33;;;354.23;;
40373;SDS011;26079;45.958;12.492;2023-05-27T13:12:36;272.38;;;253.63;;
40373;SDS011;26079;45.958;12.492;2023-05-27T13:15:01;255.60;;;238.27;;
40373;SDS011;26079;45.958;12.492;2023-05-27T13:17:31;447.00;;;415.85;;
40373;SDS011;26079;45.958;12.492;2023-05-27T13:19:57;435.83;;;406.63;;
40373;SDS011;26079;45.958;12.492;2023-05-27T13:22:23;481.45;;;448.17;;
40373;SDS011;26079;45.958;12.492;2023-05-27T13:24:49;379.73;;;353.33;;
40373;SDS011;26079;45.958;12.492;2023-05-27T13:27:14;58.15;;;54.10;;
40373;SDS011;26079;45.958;12.492;2023-05-27T13:29:40;534.45;;;498.00;;
40373;SDS011;26079;45.958;12.492;2023-05-27T13:32:06;76.53;;;71.32;;
40373;SDS011;26079;45.958;12.492;2023-05-27T13:34:33;111.28;;;103.88;;
40373;SDS011;26079;45.958;12.492;2023-05-27T13:36:59;75.93;;;71.40;;
40373;SDS011;26079;45.958;12.492;2023-05-27T13:39:24;379.40;;;353.30;;
40373;SDS011;26079;45.958;12.492;2023-05-27T13:41:50;231.60;;;216.02;;
40373;SDS011;26079;45.958;12.492;2023-05-27T13:44:16;181.85;;;169.48;;
40373;SDS011;26079;45.958;12.492;2023-05-27T13:46:41;255.32;;;237.05;;
40373;SDS011;26079;45.958;12.492;2023-05-27T13:49:07;84.32;;;78.82;;
40373;SDS011;26079;45.958;12.492;2023-05-27T13:51:33;287.60;;;267.35;;
40373;SDS011;26079;45.958;12.492;2023-05-27T13:54:07;57.97;;;54.78;;